Time;durP1;ratioP1;P1;durP2;ratioP2;P2;SDS_P1;SDS_P2;PMS_P1;PMS_P2;Temp;Humidity;BMP_temperature;BMP_pressure;BME280_temperature;BME280_humidity;BME280_pressure;Samples;Min_cycle;Max_cycle;Signal;HPM_P1;HPM_P2
2023/03/06 07:24:28;;;;;;;19.87;10.80;;;0.80;99.90;;;;;;5139753;27;20282;-80
2023/03/06 07:30:13;;;;;;;22.93;12.80;;;1.00;99.90;;;;;;5143013;27;20263;-80
2023/03/06 07:43:21;;;;;;;21.77;11.17;;;1.10;99.90;;;;;;5140693;27;20293;-80
2023/03/06 08:14:13;;;;;;;16.63;9.47;;;;;;;;;;5137452;27;20271;-80
2023/03/06 08:19:32;;;;;;;19.23;10.37;;;;;;;;;;5137794;27;20282;-80
2023/03/06 08:24:05;;;;;;;18.13;9.27;;;1.90;99.90;;;;;;5138156;27;20763;-81
2023/03/06 08:27:42;;;;;;;20.70;10.40;;;;;;;;;;5138127;27;20283;-81
2023/03/06 08:31:40;;;;;;;24.33;13.07;;;2.10;99.90;;;;;;5138494;27;20293;-80
2023/03/06 09:28:10;;;;;;;25.73;12.50;;;2.20;99.90;;;;;;5138460;27;20290;-80
2023/03/06 09:32:03;;;;;;;25.53;11.83;;;;;;;;;;5137958;27;20271;-81
2023/03/06 09:36:27;;;;;;;18.07;11.43;;;;;;;;;;5138182;27;20279;-81
2023/03/06 09:48:45;;;;;;;24.73;13.23;;;2.50;99.90;;;;;;5138452;27;20287;-81
2023/03/06 09:54:12;;;;;;;21.83;11.87;;;2.50;99.90;;;;;;5138208;27;20271;-81
2023/03/06 09:58:50;;;;;;;21.27;11.73;;;2.50;99.90;;;;;;5136059;27;20294;-81
2023/03/06 10:03:26;;;;;;;22.80;10.40;;;2.70;99.90;;;;;;5135275;27;20629;-81
2023/03/06 10:07:05;;;;;;;24.97;12.27;;;2.70;99.90;;;;;;5134539;27;20281;-78
2023/03/06 10:11:47;;;;;;;21.43;11.03;;;2.70;99.90;;;;;;5114968;27;20540;-79
2023/03/06 10:15:18;;;;;;;20.87;12.07;;;2.90;99.90;;;;;;5135185;27;20278;-79
2023/03/06 10:17:44;;;;;;;23.23;12.30;;;2.90;99.90;;;;;;5118709;28;20440;-79
2023/03/06 10:20:18;;;;;;;28.03;15.10;;;3.20;99.90;;;;;;5134984;27;20768;-81
2023/03/06 10:23:07;;;;;;;21.87;13.50;;;3.50;99.90;;;;;;5133184;28;20181;-79
2023/03/06 10:26:00;;;;;;;26.53;14.80;;;3.60;99.90;;;;;;5133401;28;20476;-79
2023/03/06 10:28:45;;;;;;;21.03;11.90;;;3.50;99.90;;;;;;5134615;27;20437;-79
2023/03/06 10:31:17;;;;;;;24.27;12.93;;;3.40;99.90;;;;;;5134684;27;20401;-80
2023/03/06 10:33:48;;;;;;;23.67;13.27;;;3.30;99.90;;;;;;5133111;28;21102;-82
2023/03/06 10:36:16;;;;;;;26.33;13.90;;;3.10;99.90;;;;;;5134869;27;20495;-80
2023/03/06 10:38:43;;;;;;;21.73;12.73;;;3.00;99.90;;;;;;5135004;27;20191;-80
2023/03/06 10:41:12;;;;;;;26.90;15.10;;;3.00;99.90;;;;;;5133555;28;20633;-80
2023/03/06 10:43:58;;;;;;;33.30;19.10;;;3.00;99.90;;;;;;5134155;27;20404;-80
2023/03/06 10:48:13;;;;;;;23.57;13.47;;;2.90;99.90;;;;;;5139007;27;20287;-82
2023/03/06 10:55:29;;;;;;;27.07;13.33;;;2.70;99.90;;;;;;5136132;27;20277;-79
2023/03/06 10:59:17;;;;;;;28.40;16.47;;;2.80;99.90;;;;;;5135991;27;20279;-79
2023/03/06 11:03:35;;;;;;;25.87;17.07;;;2.80;99.90;;;;;;5133958;27;20278;-79
2023/03/06 11:08:00;;;;;;;23.50;15.07;;;2.70;99.90;;;;;;5136339;27;20295;-83
2023/03/06 11:11:50;;;;;;;20.53;11.23;;;2.60;99.90;;;;;;5135184;27;20293;-79
2023/03/06 11:16:56;;;;;;;19.03;12.63;;;;;;;;;;5134331;27;20271;-79
2023/03/06 11:22:15;;;;;;;20.73;11.67;;;2.70;99.90;;;;;;5135204;27;20267;-78
2023/03/06 11:25:25;;;;;;;21.83;11.73;;;2.90;99.90;;;;;;5137066;27;20271;-80
2023/03/06 11:29:31;;;;;;;19.47;10.87;;;2.80;99.90;;;;;;5133769;27;20292;-81
2023/03/06 11:33:38;;;;;;;21.37;11.90;;;3.00;99.90;;;;;;5134063;27;20278;-79
2023/03/06 11:37:21;;;;;;;13.63;8.23;;;2.80;99.90;;;;;;5113930;27;20615;-79
2023/03/06 11:40:00;;;;;;;17.20;9.53;;;2.60;99.90;;;;;;5094571;28;20415;-79
2023/03/06 11:42:36;;;;;;;25.70;13.97;;;2.80;99.90;;;;;;5113259;28;20613;-79
2023/03/06 11:45:36;;;;;;;24.20;10.50;;;2.80;99.90;;;;;;5113803;28;20151;-79
2023/03/06 11:48:10;;;;;;;16.50;9.57;;;2.90;99.90;;;;;;5113387;28;20430;-80
2023/03/06 11:50:38;;;;;;;16.50;8.27;;;3.00;99.90;;;;;;5114029;28;20800;-80
2023/03/06 11:53:09;;;;;;;20.57;9.90;;;3.10;99.90;;;;;;5114157;28;20410;-81
2023/03/06 11:56:13;;;;;;;20.87;12.23;;;3.20;99.90;;;;;;5096089;28;20291;-80
2023/03/06 11:59:06;;;;;;;15.87;9.20;;;3.40;99.90;;;;;;5113717;28;20418;-83
2023/03/06 12:01:41;;;;;;;19.43;11.13;;;3.30;99.90;;;;;;5114283;28;20398;-81
2023/03/06 12:04:31;;;;;;;17.70;11.00;;;3.30;99.90;;;;;;5114315;28;20400;-81
2023/03/06 12:07:08;;;;;;;16.73;9.93;;;3.20;99.90;;;;;;5097262;28;20838;-81
2023/03/06 12:09:43;;;;;;;16.53;10.07;;;3.10;99.90;;;;;;5095856;28;20512;-81
2023/03/06 12:12:30;;;;;;;14.60;9.70;;;3.10;99.90;;;;;;5095786;28;20174;-81
2023/03/06 12:15:25;;;;;;;14.27;9.10;;;3.40;99.90;;;;;;5114931;28;20225;-81
2023/03/06 12:18:35;;;;;;;14.87;8.67;;;3.50;99.90;;;;;;5093462;28;20437;-81
2023/03/06 12:21:13;;;;;;;16.47;10.37;;;3.60;99.90;;;;;;5099812;28;20859;-80
2023/03/06 12:24:03;;;;;;;17.63;9.33;;;3.60;99.90;;;;;;5104080;28;20533;-80
2023/03/06 12:27:07;;;;;;;13.77;8.63;;;3.90;99.90;;;;;;5100855;28;20410;-80
2023/03/06 12:30:00;;;;;;;14.83;8.80;;;3.80;99.90;;;;;;5095308;28;20171;-80
2023/03/06 12:32:54;;;;;;;17.00;10.10;;;3.90;99.90;;;;;;5094723;28;20524;-80
2023/03/06 12:36:02;;;;;;;13.47;8.50;;;4.20;99.90;;;;;;5113121;28;20203;-79
2023/03/06 12:38:50;;;;;;;16.50;9.83;;;4.50;99.90;;;;;;5095668;28;20221;-81
2023/03/06 12:41:40;;;;;;;18.60;11.43;;;4.50;99.90;;;;;;5101057;28;20171;-80
2023/03/06 12:44:20;;;;;;;16.10;9.17;;;4.60;99.90;;;;;;5127294;28;20651;-80
2023/03/06 12:46:58;;;;;;;14.63;8.63;;;4.90;99.90;;;;;;5105621;28;20189;-80
2023/03/06 12:49:27;;;;;;;18.80;10.40;;;5.10;99.90;;;;;;5093241;28;20196;-81
2023/03/06 12:51:55;;;;;;;15.30;9.63;;;4.90;99.90;;;;;;5094049;28;20172;-80
2023/03/06 12:54:24;;;;;;;11.77;8.07;;;4.90;99.90;;;;;;5089255;28;20173;-80
2023/03/06 12:56:51;;;;;;;13.20;9.37;;;5.30;99.90;;;;;;5082169;28;20727;-80
2023/03/06 12:59:52;;;;;;;15.80;8.77;;;6.20;99.90;;;;;;5081798;28;20222;-80
2023/03/06 13:02:51;;;;;;;13.50;8.13;;;7.20;99.90;;;;;;5000388;28;20214;-81
2023/03/06 13:05:39;;;;;;;11.40;8.30;;;7.30;99.90;;;;;;5080691;28;20180;-80
2023/03/06 13:08:32;;;;;;;12.07;8.30;;;7.50;99.90;;;;;;5099587;28;20191;-81
2023/03/06 13:11:38;;;;;;;13.57;8.17;;;8.00;99.90;;;;;;5081305;28;20177;-82
2023/03/06 13:14:25;;;;;;;14.33;8.83;;;7.40;99.90;;;;;;5080991;28;20573;-82
2023/03/06 13:16:51;;;;;;;18.23;10.77;;;7.00;99.90;;;;;;5080258;28;20255;-81
2023/03/06 13:19:25;;;;;;;15.47;9.63;;;6.10;99.90;;;;;;5098015;28;20252;-81
2023/03/06 13:21:54;;;;;;;16.63;9.30;;;5.40;99.90;;;;;;5079823;28;20200;-80
2023/03/06 13:24:26;;;;;;;17.20;11.07;;;4.60;99.90;;;;;;5098031;28;20170;-80
2023/03/06 13:27:04;;;;;;;16.03;10.13;;;4.30;99.90;;;;;;5098371;28;20693;-80
2023/03/06 13:29:36;;;;;;;20.27;11.50;;;4.00;99.90;;;;;;5079826;28;20199;-80
2023/03/06 13:32:02;;;;;;;14.57;9.67;;;3.80;99.90;;;;;;5098014;28;20681;-80
2023/03/06 13:34:30;;;;;;;12.60;9.07;;;3.80;99.90;;;;;;5098051;28;20212;-80
2023/03/06 13:37:24;;;;;;;13.30;8.50;;;3.60;99.90;;;;;;5079592;28;20645;-81
2023/03/06 13:39:58;;;;;;;17.03;9.10;;;3.50;99.90;;;;;;5079544;28;20172;-81
2023/03/06 13:42:43;;;;;;;14.67;9.47;;;3.40;99.90;;;;;;5079473;28;20181;-81
2023/03/06 13:56:53;;;;;;;19.10;11.80;;;2.90;99.90;;;;;;5115235;27;20562;-81
2023/03/06 14:08:23;;;;;;;20.60;10.60;;;3.00;99.90;;;;;;5085999;28;20571;-79
2023/03/06 14:18:14;;;;;;;19.77;10.77;;;2.90;99.90;;;;;;5140000;27;20346;-81
2023/03/06 14:27:51;;;;;;;43.93;24.47;;;3.10;99.90;;;;;;5140281;27;20641;-84
2023/03/06 14:48:14;;;;;;;90.47;52.10;;;2.90;99.90;;;;;;5140525;27;20294;-85
2023/03/06 14:54:45;;;;;;;29.33;20.00;;;;;;;;;;5119516;27;20548;-82
2023/03/06 15:02:15;;;;;;;34.53;21.50;;;2.80;99.90;;;;;;5136691;27;20274;-79
2023/03/06 15:08:39;;;;;;;19.20;10.83;;;3.00;99.90;;;;;;5134664;27;20287;-79
2023/03/06 15:15:58;;;;;;;15.77;10.27;;;3.20;99.90;;;;;;5134646;27;20267;-78
2023/03/06 15:22:42;;;;;;;18.20;10.10;;;3.30;99.90;;;;;;5134086;27;20275;-79
2023/03/06 15:26:21;;;;;;;15.37;9.77;;;3.60;99.90;;;;;;5135033;27;20279;-79
2023/03/06 15:28:54;;;;;;;24.90;13.63;;;3.90;99.90;;;;;;5134222;28;20769;-80
2023/03/06 15:31:21;;;;;;;18.33;11.17;;;3.90;99.90;;;;;;5133998;27;20461;-80
2023/03/06 15:34:07;;;;;;;23.00;12.57;;;3.90;99.90;;;;;;5133924;27;20411;-80
2023/03/06 15:40:24;;;;;;;21.10;11.80;;;3.60;99.90;;;;;;5134698;27;20275;-80
2023/03/06 15:46:23;;;;;;;17.37;9.43;;;3.60;99.90;;;;;;5135040;27;20294;-79
2023/03/06 15:51:46;;;;;;;16.10;9.83;;;3.50;99.90;;;;;;5141076;27;20263;-78
